Time;durP1;ratioP1;P1;durP2;ratioP2;P2;SDS_P1;SDS_P2;PMS_P1;PMS_P2;Temp;Humidity;BMP_temperature;BMP_pressure;BME280_temperature;BME280_humidity;BME280_pressure;Samples;Min_cycle;Max_cycle;Signal;HPM_P1;HPM_P2
2023/07/10 00:00:51;;;;;;;9.27;5.68;;;18.90;99.90;;;;;;6306000;22;20333;-91
2023/07/10 00:03:18;;;;;;;12.48;6.60;;;19.00;99.90;;;;;;6279703;22;20094;-91
2023/07/10 00:05:44;;;;;;;9.48;5.85;;;18.90;99.90;;;;;;6280021;22;20011;-90
2023/07/10 00:08:09;;;;;;;12.98;5.85;;;18.90;99.90;;;;;;6280400;22;20007;-91
2023/07/10 00:10:36;;;;;;;15.48;6.07;;;18.90;99.90;;;;;;6279269;22;20054;-91
2023/07/10 00:13:02;;;;;;;12.82;6.30;;;18.90;99.90;;;;;;6280580;22;20011;-91
2023/07/10 00:15:29;;;;;;;10.53;6.10;;;19.00;99.90;;;;;;6279855;22;20015;-91
2023/07/10 00:17:55;;;;;;;11.02;6.15;;;18.90;99.90;;;;;;6280258;22;20018;-92
2023/07/10 00:20:26;;;;;;;13.73;6.72;;;19.00;99.90;;;;;;6279393;22;20015;-93
2023/07/10 00:22:52;;;;;;;10.65;6.30;;;19.00;99.90;;;;;;6279597;22;20025;-93
2023/07/10 00:25:18;;;;;;;11.48;5.80;;;19.00;99.90;;;;;;6279975;22;20104;-92
2023/07/10 00:27:48;;;;;;;12.88;5.97;;;18.90;99.90;;;;;;6279255;22;20011;-92
2023/07/10 00:30:18;;;;;;;10.75;6.30;;;18.90;99.90;;;;;;6280118;22;20385;-91
2023/07/10 00:32:45;;;;;;;12.80;6.50;;;18.90;99.90;;;;;;6280254;22;20011;-92
2023/07/10 00:35:17;;;;;;;11.18;6.30;;;18.90;99.90;;;;;;6281331;22;20072;-90
2023/07/10 00:38:01;;;;;;;11.82;7.10;;;18.90;99.90;;;;;;6282202;22;20018;-90
2023/07/10 00:40:33;;;;;;;9.38;6.05;;;18.90;99.90;;;;;;6307711;22;20023;-90
2023/07/10 00:43:06;;;;;;;10.50;6.45;;;18.80;99.90;;;;;;6281297;22;20038;-91
2023/07/10 00:45:32;;;;;;;10.07;5.32;;;18.90;99.90;;;;;;6282387;22;20090;-91
2023/07/10 00:48:22;;;;;;;10.48;5.93;;;18.80;99.90;;;;;;6282541;22;20435;-92
2023/07/10 00:50:50;;;;;;;11.52;6.05;;;18.80;99.90;;;;;;6307569;22;20015;-91
2023/07/10 00:53:32;;;;;;;11.57;6.30;;;18.90;99.90;;;;;;6280909;22;20026;-91
2023/07/10 00:56:00;;;;;;;8.77;7.22;;;18.80;99.90;;;;;;6282263;22;20016;-91
2023/07/10 00:58:38;;;;;;;10.63;7.15;;;18.80;99.90;;;;;;6281730;22;20061;-92
2023/07/10 01:01:23;;;;;;;13.63;8.57;;;18.80;99.90;;;;;;6282101;22;20098;-91
2023/07/10 01:03:52;;;;;;;14.35;9.82;;;18.80;99.90;;;;;;6280603;22;20011;-91
2023/07/10 01:06:32;;;;;;;13.27;8.75;;;18.70;99.90;;;;;;6282091;22;20015;-92
2023/07/10 01:09:07;;;;;;;16.92;10.18;;;18.70;99.90;;;;;;6282204;22;20026;-91
2023/07/10 01:11:36;;;;;;;13.38;10.90;;;18.80;99.90;;;;;;6281441;22;20041;-92
2023/07/10 01:14:05;;;;;;;20.25;11.35;;;18.70;99.90;;;;;;6281650;22;20018;-92
2023/07/10 01:16:31;;;;;;;17.25;11.23;;;18.80;99.90;;;;;;6281981;22;20038;-91
2023/07/10 01:18:58;;;;;;;17.90;11.70;;;18.70;99.90;;;;;;6256415;22;20018;-92
2023/07/10 01:21:32;;;;;;;15.07;11.80;;;18.70;99.90;;;;;;6281743;22;21203;-91
2023/07/10 01:24:04;;;;;;;17.40;12.57;;;18.70;99.90;;;;;;6280101;22;20015;-93
2023/07/10 01:26:31;;;;;;;16.55;12.25;;;18.60;99.90;;;;;;6279486;22;20007;-92
2023/07/10 01:28:58;;;;;;;19.33;13.15;;;18.50;99.90;;;;;;6280297;22;20041;-92
2023/07/10 01:31:25;;;;;;;19.48;14.13;;;18.50;99.90;;;;;;6279977;22;20011;-92
2023/07/10 01:34:04;;;;;;;;;;;18.50;99.90;;;;;;6281092;22;20049;-90
2023/07/10 01:36:35;;;;;;;16.05;12.27;;;18.40;99.90;;;;;;6279730;22;19972;-92
2023/07/10 01:39:27;;;;;;;19.13;12.30;;;18.40;99.90;;;;;;6306575;22;20106;-90
2023/07/10 01:41:53;;;;;;;17.60;12.43;;;18.40;99.90;;;;;;6265075;22;20453;-90
2023/07/10 01:44:31;;;;;;;16.83;12.00;;;18.30;99.90;;;;;;6255540;22;20011;-90
2023/07/10 01:46:58;;;;;;;16.05;11.65;;;18.20;99.90;;;;;;6280904;22;20011;-91
2023/07/10 01:49:28;;;;;;;14.98;11.45;;;18.30;99.90;;;;;;6280503;22;20011;-91
2023/07/10 01:51:56;;;;;;;14.20;11.30;;;18.30;99.90;;;;;;6280626;22;20045;-92
2023/07/10 01:54:22;;;;;;;13.48;11.38;;;18.30;99.90;;;;;;6307134;22;20060;-91
2023/07/10 01:56:48;;;;;;;15.98;11.35;;;18.30;99.90;;;;;;6281275;22;20316;-91
2023/07/10 01:59:14;;;;;;;15.23;11.35;;;18.20;99.90;;;;;;6255726;22;20022;-91
2023/07/10 02:01:40;;;;;;;16.17;10.88;;;18.20;99.90;;;;;;6280771;22;20038;-91
2023/07/10 02:04:07;;;;;;;13.98;10.65;;;18.20;99.90;;;;;;6281027;22;20012;-91
2023/07/10 02:06:35;;;;;;;18.77;11.40;;;18.10;99.90;;;;;;6281423;22;20007;-91
2023/07/10 02:09:02;;;;;;;16.27;11.18;;;18.10;99.90;;;;;;6281476;22;20015;-91
2023/07/10 02:11:27;;;;;;;16.23;10.53;;;18.20;99.90;;;;;;6307297;22;20007;-91
2023/07/10 02:13:53;;;;;;;14.70;11.88;;;18.20;99.90;;;;;;6280049;22;20021;-90
2023/07/10 02:16:19;;;;;;;12.95;9.70;;;18.10;99.90;;;;;;6281429;22;20007;-91
2023/07/10 02:18:44;;;;;;;14.48;10.05;;;18.10;99.90;;;;;;6280581;22;20699;-91
2023/07/10 02:21:10;;;;;;;13.30;9.57;;;18.20;99.90;;;;;;6255089;22;20068;-91
2023/07/10 02:23:38;;;;;;;10.50;9.40;;;18.20;99.90;;;;;;6281264;22;20021;-91
2023/07/10 02:26:04;;;;;;;12.32;9.20;;;18.00;99.90;;;;;;6280544;22;20022;-91
2023/07/10 02:28:31;;;;;;;8.98;8.07;;;18.10;99.90;;;;;;6280762;22;20015;-91
2023/07/10 02:30:56;;;;;;;11.23;9.25;;;18.10;99.90;;;;;;6281164;22;20076;-91
2023/07/10 02:33:22;;;;;;;9.57;8.07;;;18.20;99.90;;;;;;6281294;22;20019;-91
2023/07/10 02:35:49;;;;;;;10.95;8.00;;;18.30;99.90;;;;;;6255560;22;20069;-91
2023/07/10 02:38:15;;;;;;;11.15;8.45;;;18.60;99.90;;;;;;6280226;22;20015;-91
2023/07/10 02:40:43;;;;;;;10.37;7.90;;;18.30;99.90;;;;;;6281366;22;20011;-91
2023/07/10 02:43:09;;;;;;;11.73;8.25;;;18.00;99.90;;;;;;6280838;22;20090;-92
2023/07/10 02:45:36;;;;;;;10.70;8.63;;;18.20;99.90;;;;;;6281038;22;20096;-91
2023/07/10 02:48:02;;;;;;;15.43;9.30;;;18.30;99.90;;;;;;6280471;22;20011;-92
2023/07/10 02:50:28;;;;;;;11.00;9.10;;;18.20;99.90;;;;;;6280786;22;20007;-92
2023/07/10 02:52:54;;;;;;;13.63;8.50;;;18.00;99.90;;;;;;6281011;22;20026;-92
2023/07/10 02:55:20;;;;;;;9.27;7.80;;;18.00;99.90;;;;;;6306772;22;20062;-92
2023/07/10 02:57:46;;;;;;;7.75;7.00;;;18.00;99.90;;;;;;6280901;22;20439;-92
2023/07/10 03:00:12;;;;;;;10.13;8.13;;;18.00;99.90;;;;;;6280749;22;20015;-92
2023/07/10 03:02:38;;;;;;;8.77;7.90;;;18.00;99.90;;;;;;6281186;22;20018;-92
2023/07/10 03:05:04;;;;;;;11.20;7.38;;;18.10;99.90;;;;;;6281102;22;20011;-92
2023/07/10 03:07:30;;;;;;;8.10;7.10;;;18.00;99.90;;;;;;6280289;22;20012;-93
2023/07/10 03:09:56;;;;;;;8.73;7.80;;;18.10;99.90;;;;;;6279811;22;20011;-92
2023/07/10 03:12:22;;;;;;;10.32;8.13;;;18.10;99.90;;;;;;6280675;22;20090;-92
2023/07/10 03:14:49;;;;;;;15.48;8.25;;;18.10;99.90;;;;;;6280513;22;20031;-92
2023/07/10 03:17:15;;;;;;;10.90;8.27;;;18.10;99.90;;;;;;6280529;22;20034;-92
2023/07/10 03:19:40;;;;;;;12.40;8.13;;;18.10;99.90;;;;;;6280868;22;20130;-93
2023/07/10 03:22:06;;;;;;;7.72;7.00;;;18.10;99.90;;;;;;6280850;22;20598;-92
2023/07/10 03:24:32;;;;;;;12.20;7.20;;;18.20;99.90;;;;;;6280606;22;20012;-92
2023/07/10 03:26:58;;;;;;;9.48;6.78;;;18.10;99.90;;;;;;6280786;22;20375;-93
2023/07/10 03:29:24;;;;;;;7.60;6.45;;;18.00;99.90;;;;;;6280152;22;20026;-92
2023/07/10 03:31:50;;;;;;;8.18;6.32;;;18.10;99.90;;;;;;6280562;22;20311;-93
2023/07/10 03:34:16;;;;;;;6.53;5.82;;;18.10;99.90;;;;;;6254182;22;20015;-93
2023/07/10 03:36:42;;;;;;;6.60;5.15;;;18.20;99.90;;;;;;6280286;22;20038;-92
2023/07/10 03:39:09;;;;;;;6.32;5.70;;;18.10;99.90;;;;;;6280642;22;20051;-93
2023/07/10 03:41:35;;;;;;;8.23;5.93;;;18.10;99.90;;;;;;6280725;22;20019;-92
2023/07/10 03:44:01;;;;;;;6.28;5.00;;;18.10;99.90;;;;;;6280271;22;20512;-92
2023/07/10 03:46:27;;;;;;;7.03;5.10;;;18.10;99.90;;;;;;6305905;22;20011;-93
2023/07/10 03:48:53;;;;;;;6.70;5.60;;;18.10;99.90;;;;;;6281001;22;20060;-92
2023/07/10 03:51:19;;;;;;;6.40;4.95;;;18.10;99.90;;;;;;6279822;22;20090;-91
2023/07/10 03:53:48;;;;;;;5.38;4.68;;;18.10;99.90;;;;;;6279826;22;20011;-92
2023/07/10 03:56:14;;;;;;;7.13;5.50;;;18.10;99.90;;;;;;6280151;22;20011;-92
2023/07/10 03:58:42;;;;;;;6.80;4.90;;;18.20;99.90;;;;;;6280800;22;20342;-92
2023/07/10 04:01:08;;;;;;;5.72;5.10;;;18.10;99.90;;;;;;6280183;22;20016;-92
2023/07/10 04:03:36;;;;;;;7.15;4.80;;;18.10;99.90;;;;;;6306028;22;20307;-92
2023/07/10 04:06:03;;;;;;;6.03;4.82;;;18.20;99.90;;;;;;6280619;22;20069;-92
2023/07/10 04:08:33;;;;;;;;;;;18.10;99.90;;;;;;6281448;22;20042;-92
2023/07/10 04:11:04;;;;;;;5.75;4.50;;;18.10;99.90;;;;;;6280090;22;19936;-92
2023/07/10 04:13:30;;;;;;;5.80;5.20;;;17.60;99.90;;;;;;6280719;22;20060;-92
2023/07/10 04:16:00;;;;;;;5.25;4.63;;;18.20;99.90;;;;;;6280086;22;20356;-91
2023/07/10 04:18:29;;;;;;;6.47;4.88;;;18.10;99.90;;;;;;6306911;22;20030;-92
2023/07/10 04:20:55;;;;;;;6.68;4.70;;;18.20;99.90;;;;;;6280126;22;20011;-92
2023/07/10 04:23:20;;;;;;;6.05;4.25;;;18.20;99.90;;;;;;6279149;22;20019;-91
2023/07/10 04:25:46;;;;;;;5.70;4.20;;;18.20;99.90;;;;;;6255209;22;20065;-91
2023/07/10 04:28:12;;;;;;;5.38;3.58;;;18.30;99.90;;;;;;6279965;22;20015;-92
2023/07/10 04:30:37;;;;;;;5.05;3.75;;;18.40;99.90;;;;;;6280436;22;20012;-92
2023/07/10 04:33:03;;;;;;;4.60;3.60;;;18.20;99.90;;;;;;6254404;22;20414;-91
2023/07/10 04:35:29;;;;;;;4.65;3.60;;;18.30;99.90;;;;;;6279653;22;20015;-90
2023/07/10 04:37:55;;;;;;;4.70;3.65;;;18.70;99.90;;;;;;6280423;22;20371;-92
2023/07/10 04:40:20;;;;;;;6.47;3.45;;;18.40;99.90;;;;;;6280382;22;20688;-91
2023/07/10 04:42:46;;;;;;;5.78;3.53;;;18.30;99.90;;;;;;6279099;22;20045;-90
2023/07/10 04:45:12;;;;;;;6.13;3.80;;;18.30;99.90;;;;;;6254384;22;20007;-88
2023/07/10 04:47:37;;;;;;;4.28;3.38;;;18.40;99.90;;;;;;6280318;22;20439;-88
2023/07/10 04:50:03;;;;;;;3.40;3.00;;;18.40;99.90;;;;;;6280099;22;20639;-89
2023/07/10 04:52:29;;;;;;;5.10;3.30;;;18.40;99.90;;;;;;6253623;22;20024;-87
2023/07/10 04:54:55;;;;;;;3.90;2.72;;;18.40;99.90;;;;;;6279831;22;20026;-87
2023/07/10 04:57:21;;;;;;;4.53;2.80;;;18.50;99.90;;;;;;6305712;22;20016;-85
2023/07/10 04:59:47;;;;;;;4.38;2.38;;;18.40;99.90;;;;;;6280861;22;20021;-87
2023/07/10 05:02:12;;;;;;;3.00;2.40;;;18.50;99.90;;;;;;6280145;22;20068;-88
2023/07/10 05:04:38;;;;;;;3.88;2.45;;;18.40;99.90;;;;;;6289519;22;20011;-89
2023/07/10 05:07:04;;;;;;;2.30;2.08;;;18.50;99.90;;;;;;6305890;22;20106;-87
2023/07/10 05:09:33;;;;;;;2.47;1.70;;;18.50;99.90;;;;;;6306105;22;20014;-88
2023/07/10 05:11:59;;;;;;;3.20;1.77;;;18.40;99.90;;;;;;6331134;22;20027;-88
2023/07/10 05:14:24;;;;;;;3.08;1.88;;;18.40;99.90;;;;;;6304871;22;20015;-88
2023/07/10 05:16:50;;;;;;;2.80;1.80;;;18.40;99.90;;;;;;6282631;22;20019;-87
2023/07/10 05:19:16;;;;;;;3.10;1.90;;;18.40;99.90;;;;;;6254272;22;20026;-87
2023/07/10 05:21:43;;;;;;;1.90;1.70;;;18.40;99.90;;;;;;6278089;22;20110;-87
2023/07/10 05:24:08;;;;;;;3.15;1.90;;;18.30;99.90;;;;;;6282461;22;20098;-91
2023/07/10 05:26:34;;;;;;;3.67;1.90;;;18.40;99.90;;;;;;6282812;22;20061;-88
2023/07/10 05:29:00;;;;;;;3.60;1.73;;;18.40;99.90;;;;;;6282861;22;20018;-89
2023/07/10 05:31:38;;;;;;;3.20;1.80;;;18.40;99.90;;;;;;6282084;22;20438;-89
2023/07/10 05:34:22;;;;;;;4.35;1.85;;;18.40;99.90;;;;;;6281122;22;20015;-86
2023/07/10 05:36:48;;;;;;;3.17;2.03;;;18.40;99.90;;;;;;6279753;22;20015;-86
2023/07/10 05:39:14;;;;;;;4.55;1.90;;;18.50;99.90;;;;;;6278816;22;20098;-87
2023/07/10 05:41:39;;;;;;;3.90;2.10;;;18.60;99.90;;;;;;6251324;22;20011;-87
2023/07/10 05:44:06;;;;;;;3.30;1.80;;;18.60;99.90;;;;;;6277945;22;20435;-88
2023/07/10 05:46:32;;;;;;;5.88;2.30;;;18.70;99.90;;;;;;6277663;22;20022;-86
2023/07/10 05:48:58;;;;;;;4.47;2.10;;;18.80;99.90;;;;;;6278674;22;20014;-88
2023/07/10 05:51:26;;;;;;;2.40;1.80;;;18.80;99.90;;;;;;6277131;22;20011;-89
2023/07/10 05:53:52;;;;;;;3.92;2.00;;;18.90;99.90;;;;;;6302826;22;20030;-87
2023/07/10 05:56:19;;;;;;;3.78;1.90;;;19.00;99.90;;;;;;6303214;22;20015;-86
2023/07/10 05:58:45;;;;;;;;;;;19.10;99.90;;;;;;6278728;22;20015;-88
2023/07/10 06:01:13;;;;;;;2.70;1.90;;;19.10;99.90;;;;;;6304418;22;19922;-87
2023/07/10 06:03:39;;;;;;;3.67;2.00;;;19.20;99.90;;;;;;6251833;22;20502;-87
2023/07/10 06:06:06;;;;;;;5.22;2.25;;;19.20;99.90;;;;;;6251205;22;20046;-85
2023/07/10 06:08:34;;;;;;;4.32;1.95;;;19.20;99.90;;;;;;6328859;22;20022;-86
2023/07/10 06:11:00;;;;;;;4.10;2.17;;;19.20;99.90;;;;;;6278939;22;20015;-86
2023/07/10 06:13:26;;;;;;;3.85;2.10;;;19.20;99.90;;;;;;6329572;22;20033;-88
2023/07/10 06:15:54;;;;;;;3.00;2.17;;;19.30;99.90;;;;;;6303810;22;20047;-85
2023/07/10 06:18:20;;;;;;;5.90;2.72;;;19.20;99.90;;;;;;6278333;22;20482;-86
2023/07/10 06:20:54;;;;;;;3.90;2.10;;;19.20;99.90;;;;;;6303038;22;20497;-87
2023/07/10 06:23:21;;;;;;;2.83;1.98;;;19.40;99.90;;;;;;6278820;22;20015;-86
2023/07/10 06:25:47;;;;;;;4.78;2.10;;;20.30;99.90;;;;;;6307974;22;20346;-86
2023/07/10 06:28:14;;;;;;;5.60;1.80;;;21.20;99.90;;;;;;6279053;22;20140;-85
2023/07/10 06:30:46;;;;;;;3.50;2.03;;;21.40;99.90;;;;;;6278914;22;20018;-85
2023/07/10 06:33:11;;;;;;;3.20;1.90;;;21.30;99.90;;;;;;6277605;22;20422;-85
2023/07/10 06:35:37;;;;;;;3.70;1.73;;;21.10;99.90;;;;;;6277457;22;20098;-87
2023/07/10 06:38:03;;;;;;;4.85;1.85;;;21.00;99.90;;;;;;6278234;22;20038;-87
2023/07/10 06:40:28;;;;;;;3.35;1.60;;;20.90;99.90;;;;;;6277658;22;20015;-86
2023/07/10 06:42:54;;;;;;;3.47;1.80;;;21.00;99.90;;;;;;6276024;22;20099;-86
2023/07/10 06:45:20;;;;;;;4.43;1.42;;;21.30;99.90;;;;;;6278228;22;20015;-86
2023/07/10 06:47:46;;;;;;;2.65;1.60;;;22.00;99.90;;;;;;6278817;22;20038;-87
2023/07/10 06:50:14;;;;;;;3.50;1.60;;;22.60;99.90;;;;;;6276905;22;20018;-88
2023/07/10 06:52:41;;;;;;;4.60;1.63;;;23.40;99.90;;;;;;6277742;22;20022;-86
2023/07/10 06:55:10;;;;;;;3.90;1.33;;;24.40;99.90;;;;;;6279418;22;20019;-87
2023/07/10 06:57:35;;;;;;;3.25;1.23;;;25.40;99.90;;;;;;6305041;22;20019;-88
2023/07/10 07:00:02;;;;;;;2.88;1.52;;;26.20;99.90;;;;;;6279366;22;20007;-89
2023/07/10 07:02:28;;;;;;;;;;;26.80;99.90;;;;;;6280300;22;20025;-89
2023/07/10 07:04:53;;;;;;;5.13;1.60;;;27.30;99.90;;;;;;6305705;22;20241;-90
2023/07/10 07:07:19;;;;;;;3.27;1.10;;;27.70;99.90;;;;;;6305445;22;20015;-87
2023/07/10 07:09:46;;;;;;;3.67;1.20;;;27.80;99.90;;;;;;6280760;22;20424;-88
2023/07/10 07:12:12;;;;;;;3.88;1.67;;;27.90;99.90;;;;;;6280455;22;20357;-89
2023/07/10 07:14:37;;;;;;;3.77;1.37;;;27.90;99.90;;;;;;6281863;22;20333;-89
2023/07/10 07:17:05;;;;;;;2.63;1.30;;;28.10;99.90;;;;;;6307350;22;20385;-90
2023/07/10 07:19:34;;;;;;;2.13;1.05;;;28.30;99.90;;;;;;6281935;22;20042;-91
2023/07/10 07:22:03;;;;;;;2.53;1.17;;;28.40;99.90;;;;;;6290232;22;20019;-91
2023/07/10 07:24:29;;;;;;;3.28;1.42;;;28.40;99.90;;;;;;6279538;22;20007;-90
2023/07/10 07:26:55;;;;;;;2.58;1.20;;;28.50;99.90;;;;;;6304753;22;20072;-91
2023/07/10 07:29:21;;;;;;;2.40;0.80;;;28.80;99.90;;;;;;6293518;22;20019;-91
2023/07/10 07:31:46;;;;;;;2.70;1.10;;;29.00;99.90;;;;;;6283665;22;20053;-92
2023/07/10 07:34:13;;;;;;;4.83;1.30;;;29.40;99.90;;;;;;6255056;22;20011;-90
2023/07/10 07:36:38;;;;;;;3.72;1.10;;;29.30;99.90;;;;;;6281235;22;20184;-92
2023/07/10 07:39:05;;;;;;;3.93;1.00;;;29.30;99.90;;;;;;6281415;22;20015;-92
2023/07/10 07:41:32;;;;;;;3.05;1.00;;;29.40;99.90;;;;;;6280618;22;20023;-93
2023/07/10 07:44:01;;;;;;;5.32;1.20;;;29.70;99.90;;;;;;6332593;22;20054;-92
2023/07/10 07:46:28;;;;;;;3.67;1.20;;;29.90;99.90;;;;;;6281302;22;20450;-92
2023/07/10 07:48:55;;;;;;;2.70;1.13;;;29.90;99.90;;;;;;6281687;22;20068;-93
2023/07/10 07:51:21;;;;;;;2.40;0.90;;;29.90;99.90;;;;;;6306598;22;20458;-94
2023/07/10 07:53:47;;;;;;;5.45;1.10;;;29.50;99.90;;;;;;6280543;22;20023;-92
2023/07/10 07:56:13;;;;;;;4.57;1.40;;;28.90;99.90;;;;;;6280293;22;20011;-93
2023/07/10 07:58:39;;;;;;;3.43;1.57;;;27.90;99.90;;;;;;6281076;22;20402;-92
2023/07/10 08:01:05;;;;;;;4.80;1.33;;;27.20;99.90;;;;;;6281757;22;20114;-94
2023/07/10 08:03:32;;;;;;;3.47;1.30;;;26.30;99.90;;;;;;6280938;22;20054;-94
2023/07/10 08:05:57;;;;;;;4.35;1.38;;;25.70;99.90;;;;;;6306296;22;20094;-92
2023/07/10 08:08:24;;;;;;;3.80;1.23;;;25.20;99.90;;;;;;6281104;22;20043;-92
2023/07/10 08:10:50;;;;;;;3.47;1.10;;;24.80;99.90;;;;;;6282005;22;20014;-93
2023/07/10 08:13:18;;;;;;;3.38;1.20;;;24.50;99.90;;;;;;6281020;22;20090;-96
2023/07/10 08:15:44;;;;;;;4.50;1.42;;;24.30;99.90;;;;;;6281607;22;20015;-93
2023/07/10 08:18:10;;;;;;;2.63;0.90;;;24.10;99.90;;;;;;6281443;22;20019;-93
2023/07/10 08:20:50;;;;;;;5.97;1.40;;;24.20;99.90;;;;;;5079339;27;20610;-42
2023/07/10 08:23:17;;;;;;;4.30;1.27;;;24.50;99.90;;;;;;5046558;28;20049;-42
2023/07/10 08:25:45;;;;;;;5.30;1.17;;;24.70;99.90;;;;;;5050682;28;20732;-43
2023/07/10 08:28:10;;;;;;;2.83;0.98;;;24.90;99.90;;;;;;5043568;28;20055;-43
2023/07/10 08:30:36;;;;;;;5.40;1.20;;;25.10;99.90;;;;;;5053853;28;20037;-43
2023/07/10 08:33:02;;;;;;;4.67;1.43;;;25.60;99.90;;;;;;5050925;28;20051;-42
2023/07/10 08:35:29;;;;;;;4.03;1.33;;;25.50;99.90;;;;;;5054825;28;20060;-42
2023/07/10 08:37:54;;;;;;;3.95;1.02;;;26.20;99.90;;;;;;5082143;28;20451;-43
2023/07/10 08:40:31;;;;;;;5.00;1.27;;;26.60;99.90;;;;;;5066317;28;20133;-43
2023/07/10 08:43:01;;;;;;;3.90;0.88;;;26.60;99.90;;;;;;5061932;28;20401;-42
2023/07/10 08:45:35;;;;;;;4.13;1.02;;;26.80;99.90;;;;;;5070088;28;20093;-43
2023/07/10 08:48:22;;;;;;;2.92;1.27;;;26.90;99.90;;;;;;5055649;28;20100;-43
2023/07/10 08:50:48;;;;;;;4.22;1.00;;;26.80;99.90;;;;;;5054385;28;20052;-42
2023/07/10 08:53:24;;;;;;;2.58;1.02;;;26.90;99.90;;;;;;5047131;28;20068;-43
2023/07/10 08:56:27;;;;;;;2.22;0.90;;;27.10;99.90;;;;;;5057905;28;20099;-43
2023/07/10 08:59:00;;;;;;;4.25;1.05;;;27.10;99.90;;;;;;5042303;28;20132;-43
2023/07/10 09:01:39;;;;;;;3.35;1.30;;;27.20;99.90;;;;;;5051195;28;20102;-44
2023/07/10 09:04:08;;;;;;;3.53;1.40;;;26.70;99.90;;;;;;5063111;28;20045;-44
2023/07/10 09:06:39;;;;;;;3.22;1.10;;;26.70;99.90;;;;;;5045263;28;20044;-43
2023/07/10 09:09:17;;;;;;;3.47;1.05;;;26.90;99.90;;;;;;5055010;28;20037;-43
2023/07/10 09:11:43;;;;;;;3.45;1.20;;;26.60;99.90;;;;;;5049893;28;20056;-43
2023/07/10 09:14:24;;;;;;;2.90;1.13;;;26.40;99.90;;;;;;5055371;28;20032;-44
2023/07/10 09:16:54;;;;;;;3.08;1.15;;;26.40;99.90;;;;;;5065384;28;20415;-44
2023/07/10 09:19:21;;;;;;;6.03;1.20;;;26.60;99.90;;;;;;5051287;28;20048;-44
2023/07/10 09:21:47;;;;;;;2.53;1.17;;;26.40;99.90;;;;;;5051971;28;20462;-43
2023/07/10 09:24:22;;;;;;;3.90;1.23;;;26.30;99.90;;;;;;5049416;28;20053;-44
2023/07/10 09:26:48;;;;;;;2.35;0.93;;;25.90;99.90;;;;;;5078257;28;20124;-44
2023/07/10 09:29:26;;;;;;;;;;;25.80;99.90;;;;;;5045225;28;20048;-45
2023/07/10 09:32:00;;;;;;;2.40;1.10;;;25.60;99.90;;;;;;5043607;28;19921;-44
2023/07/10 09:34:36;;;;;;;4.20;1.45;;;25.50;99.90;;;;;;5041515;28;20033;-45
2023/07/10 09:37:10;;;;;;;5.65;2.17;;;25.30;99.90;;;;;;5043071;28;20123;-45
2023/07/10 09:39:36;;;;;;;2.88;1.25;;;25.20;99.90;;;;;;5054140;28;20114;-45
2023/07/10 09:42:03;;;;;;;3.30;1.00;;;25.10;99.90;;;;;;5053033;28;20048;-44
2023/07/10 09:44:37;;;;;;;2.88;1.05;;;25.10;99.90;;;;;;5057389;28;20028;-44
2023/07/10 09:47:14;;;;;;;6.38;1.40;;;25.00;99.90;;;;;;5039717;28;20387;-46
2023/07/10 09:50:01;;;;;;;1.60;0.70;;;24.80;99.90;;;;;;5042856;28;20053;-45
2023/07/10 09:52:30;;;;;;;3.65;1.13;;;24.80;99.90;;;;;;5045544;28;20116;-46
2023/07/10 09:55:08;;;;;;;3.33;0.90;;;24.90;99.90;;;;;;5055355;28;20072;-44
2023/07/10 09:57:53;;;;;;;3.13;1.00;;;25.10;99.90;;;;;;5039372;28;20120;-43
2023/07/10 10:00:20;;;;;;;5.18;1.23;;;25.10;99.90;;;;;;5047975;28;20038;-44
2023/07/10 10:03:00;;;;;;;3.42;1.08;;;25.10;99.90;;;;;;5051818;28;20044;-44
2023/07/10 10:05:27;;;;;;;4.93;1.45;;;25.10;99.90;;;;;;5044789;28;20064;-43
2023/07/10 10:07:54;;;;;;;;;;;25.10;99.90;;;;;;5047743;28;20045;-44
2023/07/10 10:10:25;;;;;;;2.40;1.00;;;25.20;99.90;;;;;;5040454;28;20373;-42
2023/07/10 10:13:03;;;;;;;2.60;0.88;;;25.10;99.90;;;;;;5043517;28;20114;-42
2023/07/10 10:15:42;;;;;;;4.20;1.05;;;24.80;99.90;;;;;;5051677;28;20276;-42
2023/07/10 10:18:45;;;;;;;3.80;1.20;;;24.70;99.90;;;;;;5044594;28;20438;-42
2023/07/10 10:21:16;;;;;;;3.10;0.85;;;24.40;99.90;;;;;;5042802;28;20048;-42
2023/07/10 10:23:48;;;;;;;3.47;1.05;;;24.20;99.90;;;;;;5039770;28;20110;-42
2023/07/10 10:26:38;;;;;;;4.07;1.10;;;24.10;99.90;;;;;;5038871;28;20042;-42
2023/07/10 10:29:29;;;;;;;5.15;1.48;;;23.90;99.90;;;;;;5044003;28;20033;-43
2023/07/10 10:32:08;;;;;;;5.28;1.50;;;23.70;99.90;;;;;;5071619;28;20387;-42
2023/07/10 10:34:37;;;;;;;5.32;1.73;;;23.60;99.90;;;;;;5033486;28;20045;-43
2023/07/10 10:37:15;;;;;;;5.68;1.38;;;23.50;99.90;;;;;;5038158;28;20293;-44
2023/07/10 10:39:59;;;;;;;4.55;1.20;;;23.70;99.90;;;;;;5036495;28;20117;-44
2023/07/10 10:42:46;;;;;;;4.65;1.55;;;23.80;99.90;;;;;;5032904;28;20045;-44
2023/07/10 10:45:29;;;;;;;3.45;1.30;;;23.70;99.90;;;;;;5040809;28;20210;-43
2023/07/10 10:48:10;;;;;;;3.55;1.10;;;23.60;99.90;;;;;;5039789;28;20423;-44
2023/07/10 10:51:04;;;;;;;5.72;1.33;;;23.70;99.90;;;;;;5044744;28;20033;-43
2023/07/10 10:53:51;;;;;;;3.67;0.90;;;24.00;99.90;;;;;;5032954;28;20056;-43
2023/07/10 10:56:31;;;;;;;4.50;1.10;;;24.40;99.90;;;;;;5062314;28;20068;-43
2023/07/10 10:59:00;;;;;;;4.60;1.35;;;24.70;99.90;;;;;;5033679;28;20504;-43
2023/07/10 11:01:34;;;;;;;3.83;1.20;;;25.00;99.90;;;;;;5037496;28;20037;-43
2023/07/10 11:04:31;;;;;;;2.83;1.08;;;25.00;99.90;;;;;;5039860;28;20317;-43
2023/07/10 11:07:10;;;;;;;4.22;1.02;;;24.70;99.90;;;;;;5037417;28;20041;-45
2023/07/10 11:09:44;;;;;;;3.55;1.30;;;24.60;99.90;;;;;;5030763;28;20030;-44
2023/07/10 11:12:16;;;;;;;5.00;1.10;;;24.40;99.90;;;;;;5039409;28;20095;-44
2023/07/10 11:14:44;;;;;;;4.40;1.23;;;24.20;99.90;;;;;;5034325;28;20081;-43
2023/07/10 11:17:12;;;;;;;2.42;0.90;;;24.40;99.90;;;;;;5032792;28;20110;-46
2023/07/10 11:19:38;;;;;;;3.45;1.20;;;24.40;99.90;;;;;;5033139;28;20164;-45
2023/07/10 11:22:27;;;;;;;3.45;1.23;;;24.50;99.90;;;;;;5074559;28;20033;-43
2023/07/10 11:24:53;;;;;;;4.03;1.13;;;24.70;99.90;;;;;;5041179;28;20047;-43
2023/07/10 11:27:32;;;;;;;5.87;1.10;;;24.90;99.90;;;;;;5036933;28;20391;-43
2023/07/10 11:30:13;;;;;;;3.80;1.05;;;25.00;99.90;;;;;;5035275;28;20426;-43
2023/07/10 11:33:03;;;;;;;2.88;1.00;;;24.90;99.90;;;;;;5038348;28;20058;-42
2023/07/10 11:35:30;;;;;;;5.00;1.10;;;24.80;99.90;;;;;;5033696;28;20052;-43
2023/07/10 11:38:02;;;;;;;5.10;1.20;;;24.70;99.90;;;;;;5032500;28;20041;-45
2023/07/10 11:40:28;;;;;;;5.20;1.05;;;24.60;99.90;;;;;;5033173;28;20459;-43
2023/07/10 11:43:00;;;;;;;4.17;1.30;;;24.70;99.90;;;;;;5042045;28;20120;-45
2023/07/10 11:45:34;;;;;;;3.38;0.80;;;24.50;99.90;;;;;;5034115;28;20067;-44
2023/07/10 11:48:00;;;;;;;3.47;1.00;;;24.40;99.90;;;;;;5035169;28;20044;-44
2023/07/10 11:50:32;;;;;;;3.70;0.90;;;24.10;99.90;;;;;;5041172;28;20169;-45
2023/07/10 11:53:18;;;;;;;5.07;1.00;;;24.10;99.90;;;;;;5031817;28;20076;-44
2023/07/10 11:56:02;;;;;;;4.32;0.75;;;24.20;99.90;;;;;;5033519;28;20144;-45
2023/07/10 11:58:33;;;;;;;3.45;1.00;;;24.40;99.90;;;;;;5065515;28;20492;-46
2023/07/10 12:01:20;;;;;;;1.92;0.80;;;24.60;99.90;;;;;;5048576;28;20041;-46
2023/07/10 12:03:46;;;;;;;4.00;1.10;;;24.70;99.90;;;;;;5045033;28;20383;-46
2023/07/10 12:06:22;;;;;;;4.97;1.05;;;24.70;99.90;;;;;;5041655;28;20036;-45
2023/07/10 12:08:50;;;;;;;2.97;0.90;;;24.70;99.90;;;;;;5036210;28;20092;-44
2023/07/10 12:11:29;;;;;;;4.32;1.20;;;24.60;99.90;;;;;;5032770;28;20038;-45
2023/07/10 12:14:03;;;;;;;4.85;1.30;;;24.70;99.90;;;;;;5033598;28;20498;-47
2023/07/10 12:16:29;;;;;;;4.15;1.10;;;24.60;99.90;;;;;;5044918;28;20041;-44
2023/07/10 12:19:12;;;;;;;3.22;1.00;;;24.60;99.90;;;;;;5010659;28;20103;-44
2023/07/10 12:21:38;;;;;;;2.88;1.13;;;24.20;99.90;;;;;;5068821;28;20055;-45
2023/07/10 12:24:04;;;;;;;3.27;1.20;;;23.80;99.90;;;;;;5033861;28;20033;-43
2023/07/10 12:27:10;;;;;;;4.83;1.20;;;23.40;99.90;;;;;;5061940;28;20120;-44
2023/07/10 12:29:55;;;;;;;3.17;1.00;;;23.10;99.90;;;;;;5039406;22;20055;-96
2023/07/10 12:32:38;;;;;;;4.18;1.10;;;23.10;99.90;;;;;;5024926;28;20049;-96
2023/07/10 12:38:35;;;;;;;5.55;1.00;;;23.40;99.90;;;;;;5027337;28;20045;-96
2023/07/10 12:44:28;;;;;;;3.55;0.80;;;23.50;99.90;;;;;;5042058;28;20479;-94
2023/07/10 12:47:22;;;;;;;2.25;0.65;;;23.50;99.90;;;;;;5019313;28;20165;-96
2023/07/10 12:54:36;;;;;;;2.20;0.70;;;23.60;99.90;;;;;;5044868;28;20027;-95
2023/07/10 12:57:02;;;;;;;2.28;0.82;;;23.60;99.90;;;;;;5030734;28;20045;-83
2023/07/10 12:59:34;;;;;;;2.40;0.73;;;23.60;99.90;;;;;;5014566;28;20494;-85
2023/07/10 13:02:15;;;;;;;5.15;1.08;;;23.40;99.90;;;;;;5014519;28;20041;-86
2023/07/10 13:04:50;;;;;;;2.15;0.90;;;23.30;99.90;;;;;;5016343;28;20060;-87
2023/07/10 13:07:18;;;;;;;3.50;1.08;;;22.90;99.90;;;;;;5035175;28;20094;-85
2023/07/10 13:09:55;;;;;;;5.20;1.10;;;23.10;99.90;;;;;;5025940;28;20395;-84
2023/07/10 13:12:31;;;;;;;3.75;1.00;;;23.00;99.90;;;;;;5038778;28;20542;-84